Time;durP1;ratioP1;P1;durP2;ratioP2;P2;SDS_P1;SDS_P2;PMS_P1;PMS_P2;Temp;Humidity;BMP_temperature;BMP_pressure;BME280_temperature;BME280_humidity;BME280_pressure;Samples;Min_cycle;Max_cycle;Signal;HPM_P1;HPM_P2
2022/07/17 00:01:50;;;;;;;3.50;1.90;;;;;;;-143.84;49.91;44997.66;5110201;28;20476;-75
2022/07/17 00:04:17;;;;;;;2.27;2.07;;;;;;;-143.84;49.06;44997.66;5110217;28;20427;-75
2022/07/17 00:06:44;;;;;;;3.30;2.10;;;;;;;-143.84;48.39;45007.19;5110194;28;20442;-75
2022/07/17 00:09:11;;;;;;;3.20;1.87;;;;;;;-143.84;47.60;44972.91;5110219;28;20446;-75
2022/07/17 00:11:41;;;;;;;2.80;2.10;;;;;;;-143.84;46.72;44978.63;5110013;28;20427;-75
2022/07/17 00:14:08;;;;;;;1.90;1.80;;;;;;;-143.84;46.48;44984.31;5109733;28;20501;-75
2022/07/17 00:16:35;;;;;;;3.87;1.73;;;;;;;-143.84;46.23;44976.72;5109257;28;20472;-74
2022/07/17 00:19:02;;;;;;;6.40;2.10;;;;;;;-143.84;46.04;44972.91;5109262;28;20443;-75
2022/07/17 00:21:29;;;;;;;3.27;2.10;;;;;;;-143.84;46.01;44980.53;5109896;28;21005;-75
2022/07/17 00:23:57;;;;;;;4.17;1.90;;;;;;;-143.84;45.68;45007.19;5109682;28;20468;-75
2022/07/17 00:26:24;;;;;;;3.87;2.23;;;;;;;-143.84;46.63;45003.38;5109929;28;20438;-75
2022/07/17 00:28:52;;;;;;;2.93;2.50;;;;;;;-143.84;49.56;44982.41;5109786;28;20478;-75
2022/07/17 00:31:20;;;;;;;6.43;2.40;;;;;;;-143.84;51.24;44984.31;5109848;28;20962;-75
2022/07/17 00:33:47;;;;;;;2.17;2.03;;;;;;;-143.84;48.99;45009.09;5109504;28;20477;-75
2022/07/17 00:36:14;;;;;;;10.30;2.40;;;;;;;-143.84;48.21;44986.22;5110143;28;20435;-75
2022/07/17 00:38:41;;;;;;;9.53;2.30;;;;;;;-143.84;48.53;44991.94;5109815;28;20435;-75
2022/07/17 00:41:09;;;;;;;2.53;2.33;;;;;;;-143.84;48.13;44984.31;5109667;28;20431;-75
2022/07/17 00:43:36;;;;;;;5.43;2.60;;;;;;;-143.84;48.51;44999.56;5109491;28;20435;-75
2022/07/17 00:46:07;;;;;;;2.83;2.63;;;;;;;-143.84;47.67;45003.38;5113407;28;20439;-75
2022/07/17 00:48:34;;;;;;;3.30;2.33;;;;;;;-143.84;47.72;45007.19;5113669;28;20943;-75
2022/07/17 00:51:01;;;;;;;2.60;2.37;;;;;;;-143.84;47.89;44984.31;5113761;28;20439;-75
2022/07/17 00:53:29;;;;;;;3.87;2.00;;;;;;;-143.84;48.55;44995.75;5113538;28;20428;-75
2022/07/17 00:55:59;;;;;;;3.90;3.10;;;;;;;-143.84;52.13;44974.81;5113377;28;20435;-75
2022/07/17 00:58:27;;;;;;;4.90;2.63;;;;;;;-143.84;52.80;44997.66;5113683;28;20442;-75
2022/07/17 01:00:55;;;;;;;6.27;3.00;;;;;;;-143.84;53.98;44972.91;5113603;28;20484;-75
2022/07/17 01:03:26;;;;;;;3.93;2.67;;;;;;;-143.84;54.00;44978.63;5113630;28;20450;-75
2022/07/17 01:05:53;;;;;;;3.40;2.50;;;;;;;-143.84;51.96;44991.94;5113447;28;20450;-75
2022/07/17 01:08:21;;;;;;;4.53;2.30;;;;;;;-143.84;53.09;44993.84;5113001;28;20471;-75
2022/07/17 01:10:48;;;;;;;6.10;2.53;;;;;;;-143.84;53.86;45001.47;5113173;28;20450;-75
2022/07/17 01:13:16;;;;;;;4.00;2.60;;;;;;;-143.84;52.84;44997.66;5113666;28;20447;-75
2022/07/17 01:15:43;;;;;;;6.70;2.30;;;;;;;-143.84;53.06;45009.09;5113551;28;20551;-75
2022/07/17 01:18:12;;;;;;;4.53;2.83;;;;;;;-143.84;52.78;45033.84;5113567;28;20839;-75
2022/07/17 01:20:44;;;;;;;6.07;2.33;;;;;;;-143.84;52.52;45007.19;5113213;28;20438;-75
2022/07/17 01:23:12;;;;;;;2.30;2.10;;;;;;;-143.84;52.39;44991.94;5113145;28;20472;-75
2022/07/17 01:25:40;;;;;;;5.60;2.50;;;;;;;-143.84;52.55;44995.75;5113061;28;20962;-75
2022/07/17 01:28:08;;;;;;;6.90;2.50;;;;;;;-143.84;52.59;45003.38;5106973;28;20499;-75
2022/07/17 01:30:36;;;;;;;2.83;2.43;;;;;;;-143.84;52.66;45007.19;5110823;28;20461;-75
2022/07/17 01:33:03;;;;;;;7.13;3.37;;;;;;;-143.84;52.59;44997.66;5113062;28;20446;-75
2022/07/17 01:35:31;;;;;;;5.80;2.80;;;;;;;-143.84;52.38;45014.78;5112776;28;20470;-75
2022/07/17 01:37:58;;;;;;;2.93;2.70;;;;;;;-143.84;52.27;44993.84;5113446;28;20431;-75
2022/07/17 01:40:27;;;;;;;3.33;2.60;;;;;;;-143.84;51.91;45010.97;5113521;28;20928;-75
2022/07/17 01:42:54;;;;;;;3.70;2.73;;;;;;;-143.84;51.58;44976.72;5112791;28;20504;-75
2022/07/17 01:45:21;;;;;;;4.87;2.73;;;;;;;-143.84;51.42;45009.09;5112423;28;20484;-75
2022/07/17 01:47:49;;;;;;;6.20;3.00;;;;;;;-143.84;51.00;45003.38;5113350;28;20443;-75
2022/07/17 01:50:16;;;;;;;5.43;2.83;;;;;;;-143.84;50.95;45014.78;5113051;28;20528;-75
2022/07/17 01:52:45;;;;;;;4.90;3.10;;;;;;;-143.84;50.87;44990.03;5113311;28;20435;-75
2022/07/17 01:55:15;;;;;;;6.90;2.90;;;;;;;-143.84;51.04;45024.31;5113329;28;20900;-75
2022/07/17 01:57:45;;;;;;;3.07;2.87;;;;;;;-143.84;51.01;44990.03;5112736;28;20435;-75
2022/07/17 02:00:16;;;;;;;6.40;3.27;;;;;;;-143.84;50.99;44984.31;5113320;28;20446;-75
2022/07/17 02:02:43;;;;;;;5.33;2.80;;;;;;;-143.84;51.03;45012.88;5113039;28;20958;-75
2022/07/17 02:05:11;;;;;;;7.50;3.10;;;;;;;-143.84;50.84;44993.84;5112959;28;20450;-75
2022/07/17 02:07:39;;;;;;;5.60;2.83;;;;;;;-143.84;51.00;45003.38;5113035;28;20564;-75
2022/07/17 02:10:09;;;;;;;5.00;2.83;;;;;;;-143.84;50.96;45012.88;5112799;28;20442;-75
2022/07/17 02:12:36;;;;;;;3.67;3.37;;;;;;;-143.84;50.81;44995.75;5112616;28;20493;-75
2022/07/17 02:15:06;;;;;;;4.13;3.00;;;;;;;-143.84;50.51;44986.22;5112260;28;21031;-75
2022/07/17 02:17:33;;;;;;;6.70;3.37;;;;;;;-143.84;50.50;45007.19;5112524;28;20515;-75
2022/07/17 02:20:00;;;;;;;6.17;3.40;;;;;;;-143.84;50.53;44995.75;5112743;28;20443;-76
2022/07/17 02:22:28;;;;;;;4.13;2.83;;;;;;;-143.84;50.20;45009.09;5111866;28;20439;-73
2022/07/17 02:24:55;;;;;;;5.83;2.90;;;;;;;-143.84;50.60;44980.53;5112150;28;20427;-73
2022/07/17 02:27:22;;;;;;;4.67;3.37;;;;;;;-143.84;50.33;44972.91;5111518;28;20439;-73
2022/07/17 02:29:50;;;;;;;3.57;3.00;;;;;;;-143.84;50.53;45007.19;5111552;28;20489;-72
2022/07/17 02:32:18;;;;;;;5.00;2.83;;;;;;;-143.84;50.30;45018.59;5111561;28;21009;-73
2022/07/17 02:34:46;;;;;;;5.37;3.30;;;;;;;-143.84;50.30;44982.41;5112138;28;21007;-76
2022/07/17 02:37:13;;;;;;;3.03;2.83;;;;;;;-143.84;50.35;44988.13;5112615;28;20435;-77
2022/07/17 02:39:52;;;;;;;3.77;3.37;;;;;;;-143.84;50.59;45009.09;5112264;28;20533;-76
2022/07/17 02:42:20;;;;;;;5.80;2.77;;;;;;;-143.84;50.79;44986.22;5112170;28;20435;-75
2022/07/17 02:44:48;;;;;;;6.80;2.70;;;;;;;-143.84;50.74;44969.09;5112630;28;20478;-75
2022/07/17 02:47:15;;;;;;;3.90;3.47;;;;;;;-143.84;50.94;45010.97;5111513;28;20443;-73
2022/07/17 02:49:44;;;;;;;2.80;2.70;;;;;;;-143.84;51.11;44997.66;5110776;28;20912;-73
2022/07/17 02:52:11;;;;;;;5.30;3.50;;;;;;;-143.84;51.29;44990.03;5110647;28;20469;-73
2022/07/17 02:54:38;;;;;;;4.07;3.67;;;;;;;-143.84;51.57;44993.84;5110947;28;20867;-73
2022/07/17 02:57:05;;;;;;;5.37;3.20;;;;;;;-143.84;51.69;45001.47;5111415;28;20491;-73
2022/07/17 02:59:32;;;;;;;10.87;3.83;;;;;;;-143.84;52.06;45020.50;5111174;28;20438;-72
2022/07/17 03:01:59;;;;;;;7.17;3.93;;;;;;;-143.84;52.04;44993.84;5111008;28;20436;-72
2022/07/17 03:04:27;;;;;;;3.53;3.33;;;;;;;-143.84;52.08;44988.13;5110886;28;20432;-72
2022/07/17 03:06:55;;;;;;;4.20;3.23;;;;;;;-143.84;52.56;45005.28;5110948;28;20499;-72
2022/07/17 03:09:22;;;;;;;3.17;2.83;;;;;;;-143.84;52.95;45012.88;5109499;28;20431;-72
2022/07/17 03:11:50;;;;;;;3.43;3.13;;;;;;;-143.84;53.19;44995.75;5110438;28;20439;-72
2022/07/17 03:14:17;;;;;;;4.20;3.90;;;;;;;-143.84;53.22;44991.94;5111021;28;21000;-72
2022/07/17 03:16:44;;;;;;;6.83;3.30;;;;;;;-143.84;53.56;44988.13;5110662;28;20480;-72
2022/07/17 03:19:11;;;;;;;8.30;3.90;;;;;;;-143.84;53.55;45001.47;5110706;28;20964;-72
2022/07/17 03:21:38;;;;;;;4.53;3.50;;;;;;;-143.84;53.89;44991.94;5110875;28;20423;-73
2022/07/17 03:24:07;;;;;;;6.80;3.50;;;;;;;-143.84;54.57;45030.03;5110698;28;20423;-72
2022/07/17 03:26:34;;;;;;;3.80;3.43;;;;;;;-143.84;54.87;44999.56;5110709;28;20447;-73
2022/07/17 03:29:01;;;;;;;9.23;4.33;;;;;;;-143.84;55.23;45009.09;5110460;28;21044;-72
2022/07/17 03:31:28;;;;;;;3.80;3.40;;;;;;;-143.84;55.10;45010.97;5110340;28;20476;-72
2022/07/17 03:33:56;;;;;;;5.37;3.60;;;;;;;-143.84;55.26;44999.56;5110285;28;20602;-72
2022/07/17 03:36:23;;;;;;;4.20;3.80;;;;;;;-143.84;55.43;45020.50;5109878;28;20478;-72
2022/07/17 03:38:50;;;;;;;4.33;3.93;;;;;;;-143.84;55.49;45007.19;5110356;28;20432;-73
2022/07/17 03:41:19;;;;;;;4.83;3.60;;;;;;;-143.84;55.28;44995.75;5109988;28;20445;-73
2022/07/17 03:43:46;;;;;;;3.77;3.33;;;;;;;-143.84;54.63;45016.69;5109995;28;20979;-73
2022/07/17 03:46:13;;;;;;;4.27;3.70;;;;;;;-143.84;54.08;45005.28;5110066;28;20455;-72
2022/07/17 03:48:40;;;;;;;5.87;3.97;;;;;;;-143.84;53.41;44988.13;5110210;28;20447;-72
2022/07/17 03:51:07;;;;;;;5.40;3.43;;;;;;;-143.84;52.68;44999.56;5109565;28;20951;-73
2022/07/17 03:53:34;;;;;;;7.17;3.43;;;;;;;-143.84;51.10;44963.38;5109161;28;20438;-73
2022/07/17 03:56:01;;;;;;;3.97;3.57;;;;;;;-143.84;49.82;44991.94;5109746;28;20482;-74
2022/07/17 03:58:30;;;;;;;3.50;2.90;;;;;;;-143.84;48.87;44980.53;5110022;28;20435;-73
2022/07/17 04:00:57;;;;;;;4.43;3.67;;;;;;;-143.84;47.72;44991.94;5110269;28;20455;-74
2022/07/17 04:03:25;;;;;;;4.20;3.90;;;;;;;-143.84;47.20;44972.91;5110797;28;20441;-73
2022/07/17 04:05:53;;;;;;;3.53;3.23;;;;;;;-143.84;46.21;44974.81;5109812;28;20427;-74
2022/07/17 04:08:20;;;;;;;6.23;3.90;;;;;;;-143.84;45.63;44951.97;5109906;28;20431;-73
2022/07/17 04:10:47;;;;;;;6.57;3.60;;;;;;;-143.84;45.27;44995.75;5110312;28;20426;-74
2022/07/17 04:13:15;;;;;;;11.27;3.67;;;;;;;-143.84;44.65;44946.25;5110584;28;20438;-74
2022/07/17 04:15:56;;;;;;;3.50;3.30;;;;;;;-143.84;44.28;44957.66;5110134;28;20851;-75
2022/07/17 04:18:26;;;;;;;9.00;4.07;;;;;;;-143.84;44.67;44944.34;5110165;28;20816;-73
2022/07/17 04:20:56;;;;;;;6.13;3.80;;;;;;;-143.84;44.55;44963.38;5109362;28;20435;-73
2022/07/17 04:23:25;;;;;;;4.67;3.77;;;;;;;-143.84;44.67;44971.00;5109914;28;20948;-73
2022/07/17 04:25:52;;;;;;;5.00;3.40;;;;;;;-143.84;44.43;44955.75;5108476;28;20504;-73
2022/07/17 04:28:19;;;;;;;4.53;3.83;;;;;;;-143.84;44.64;44961.47;5108254;28;20478;-73
2022/07/17 04:30:49;;;;;;;13.30;4.30;;;;;;;-143.84;44.91;44951.97;5108223;28;20443;-73
2022/07/17 04:33:17;;;;;;;5.30;3.93;;;;;;;-143.84;44.36;44950.06;5106902;28;20435;-73
2022/07/17 04:35:44;;;;;;;9.80;6.00;;;;;;;-143.84;44.32;44950.06;5107377;28;20478;-73
2022/07/17 04:38:12;;;;;;;14.77;5.10;;;;;;;-143.84;44.37;44940.53;5107660;28;20971;-73
2022/07/17 04:40:40;;;;;;;6.80;4.50;;;;;;;-143.84;43.93;44951.97;5108156;28;20437;-73
2022/07/17 04:43:08;;;;;;;8.80;3.80;;;;;;;-143.84;43.31;44950.06;5107896;28;20435;-74
2022/07/17 04:45:35;;;;;;;5.40;3.70;;;;;;;-143.84;42.96;44957.66;5107876;28;20431;-73
2022/07/17 04:48:04;;;;;;;5.13;3.77;;;;;;;-143.84;42.21;44944.34;5107895;28;20447;-73
2022/07/17 04:50:32;;;;;;;9.83;2.83;;;;;;;-143.84;40.59;44921.50;5109460;28;20442;-74
2022/07/17 04:53:01;;;;;;;3.73;2.87;;;;;;;-143.84;39.80;44902.44;5109318;28;20435;-74
2022/07/17 04:55:28;;;;;;;4.37;2.73;;;;;;;-143.84;38.77;44908.16;5109001;28;20483;-73
2022/07/17 04:57:55;;;;;;;3.97;2.83;;;;;;;-143.84;38.78;44948.16;5109025;28;20923;-73
2022/07/17 05:00:23;;;;;;;12.40;2.97;;;;;;;-143.84;38.21;44925.31;5109122;28;20443;-74
2022/07/17 05:02:50;;;;;;;4.17;2.87;;;;;;;-143.84;37.99;44925.31;5109025;28;20458;-73
2022/07/17 05:05:19;;;;;;;4.47;3.10;;;;;;;-143.84;37.65;44913.88;5109261;28;20431;-74
2022/07/17 05:07:46;;;;;;;6.37;3.10;;;;;;;-143.84;37.16;44885.31;5108778;28;20446;-74
2022/07/17 05:10:13;;;;;;;5.27;3.00;;;;;;;-143.84;36.95;44891.03;5109077;28;20901;-73
2022/07/17 05:12:40;;;;;;;10.00;3.07;;;;;;;-143.84;36.99;44904.34;5108922;28;20435;-74
2022/07/17 05:15:08;;;;;;;3.73;3.20;;;;;;;-143.84;37.07;44892.94;5109101;28;20481;-74
2022/07/17 05:17:35;;;;;;;5.90;2.50;;;;;;;-143.84;36.64;44919.59;5108907;28;20500;-74
2022/07/17 05:20:03;;;;;;;4.80;3.00;;;;;;;-143.84;36.50;44841.53;5109379;28;20431;-74
2022/07/17 05:22:32;;;;;;;2.83;2.53;;;;;;;-143.84;36.68;44887.22;5109133;28;20438;-73
2022/07/17 05:24:59;;;;;;;6.23;3.00;;;;;;;-143.84;36.13;44932.91;5109129;28;20447;-74
2022/07/17 05:27:28;;;;;;;4.90;3.00;;;;;;;-143.84;35.54;44877.69;5108703;28;20459;-74
2022/07/17 05:29:55;;;;;;;2.97;2.77;;;;;;;-143.84;35.42;44866.28;5108872;28;20499;-74
2022/07/17 05:32:22;;;;;;;5.93;2.63;;;;;;;-143.84;35.48;44868.19;5111184;28;20441;-74
2022/07/17 05:34:50;;;;;;;13.23;3.40;;;;;;;-143.84;35.36;44885.31;5112918;28;20434;-74
2022/07/17 05:37:17;;;;;;;4.77;2.47;;;;;;;-143.84;35.40;44866.28;5112709;28;20487;-74
2022/07/17 05:39:45;;;;;;;3.43;3.10;;;;;;;-143.84;35.48;44856.75;5112452;28;20450;-74
2022/07/17 05:42:12;;;;;;;7.23;2.77;;;;;;;-143.84;35.40;44892.94;5112660;28;20439;-74
2022/07/17 05:44:40;;;;;;;4.53;2.90;;;;;;;-143.84;34.96;44849.13;5113191;28;20435;-74
2022/07/17 05:47:07;;;;;;;3.90;2.83;;;;;;;-143.84;34.61;44852.94;5112381;28;20979;-74
2022/07/17 05:49:34;;;;;;;2.50;2.40;;;;;;;-143.84;34.41;44856.75;5112489;28;20435;-74
2022/07/17 05:52:01;;;;;;;5.30;2.50;;;;;;;-143.84;33.90;44873.88;5112087;28;20936;-74
2022/07/17 05:54:28;;;;;;;3.90;3.00;;;;;;;-143.84;34.02;44864.38;5112393;28;20829;-74
2022/07/17 05:56:57;;;;;;;4.73;2.43;;;;;;;-143.84;34.12;44887.22;5112008;28;20506;-74
2022/07/17 05:59:24;;;;;;;5.93;2.87;;;;;;;-143.84;33.88;44860.56;5112461;28;20530;-74
2022/07/17 06:01:52;;;;;;;3.57;3.23;;;;;;;-143.84;32.63;44843.44;5112293;28;20443;-74
2022/07/17 06:04:19;;;;;;;7.00;3.30;;;;;;;-143.84;33.08;44833.91;5111343;28;20443;-74
2022/07/17 06:06:46;;;;;;;6.70;2.87;;;;;;;-143.84;32.18;44856.75;5112255;28;20446;-74
2022/07/17 06:09:13;;;;;;;4.30;2.73;;;;;;;-143.84;31.68;44856.75;5112180;28;20896;-74
2022/07/17 06:11:40;;;;;;;9.03;2.70;;;;;;;-143.84;31.76;44854.84;5111950;28;20435;-74
2022/07/17 06:14:09;;;;;;;5.40;2.83;;;;;;;-143.84;31.78;44843.44;5111795;28;20439;-74
2022/07/17 06:16:36;;;;;;;5.03;3.17;;;;;;;-143.84;31.85;44835.81;5111280;28;20475;-73
2022/07/17 06:19:03;;;;;;;3.00;2.80;;;;;;;-143.84;32.10;44852.94;5111680;28;20488;-74
2022/07/17 06:21:30;;;;;;;4.57;2.63;;;;;;;-143.84;31.87;44835.81;5111685;28;21003;-73
2022/07/17 06:23:58;;;;;;;7.07;3.47;;;;;;;-143.84;31.80;44833.91;5111723;28;20461;-73
2022/07/17 06:26:25;;;;;;;3.17;2.80;;;;;;;-143.84;32.37;44841.53;5111780;28;20443;-73
2022/07/17 06:28:52;;;;;;;3.07;2.87;;;;;;;-143.84;31.45;44824.38;5111097;28;20487;-73
2022/07/17 06:31:22;;;;;;;3.90;3.03;;;;;;;-143.84;31.67;44832.00;5111226;28;20861;-73
2022/07/17 06:33:49;;;;;;;7.77;2.87;;;;;;;-143.84;31.05;44841.53;5111127;28;20504;-74
2022/07/17 06:36:16;;;;;;;3.00;2.77;;;;;;;-143.84;30.94;44862.47;5110691;28;20540;-73
2022/07/17 06:38:43;;;;;;;5.37;3.17;;;;;;;-143.84;30.67;44824.38;5110606;28;20450;-73
2022/07/17 06:41:10;;;;;;;11.37;2.50;;;;;;;-143.84;30.51;44847.22;5111115;28;20438;-73
2022/07/17 06:43:38;;;;;;;7.07;2.90;;;;;;;-143.84;31.25;44837.72;5110733;28;20439;-74
2022/07/17 06:46:05;;;;;;;3.47;3.23;;;;;;;-143.84;30.21;44820.56;5111149;28;20438;-74
2022/07/17 06:48:34;;;;;;;5.00;2.47;;;;;;;-143.84;30.40;44809.16;5111529;28;20455;-73
2022/07/17 06:51:01;;;;;;;2.80;2.60;;;;;;;-143.84;29.61;44792.00;5111129;28;20443;-74
2022/07/17 06:53:28;;;;;;;2.73;2.37;;;;;;;-143.84;29.81;44818.66;5111138;28;20439;-73
2022/07/17 06:55:56;;;;;;;17.00;2.77;;;;;;;-143.84;29.95;44786.31;5110867;28;20478;-73
2022/07/17 06:58:23;;;;;;;4.40;3.17;;;;;;;-143.84;29.47;44807.25;5111082;28;20447;-73
2022/07/17 07:00:50;;;;;;;4.07;2.73;;;;;;;-143.84;29.66;44820.56;5110869;28;20948;-73
2022/07/17 07:03:17;;;;;;;9.33;2.70;;;;;;;-143.84;28.19;44805.34;5110843;28;20462;-74
2022/07/17 07:05:46;;;;;;;2.43;2.23;;;;;;;-143.84;28.08;44803.44;5111233;28;20499;-73
2022/07/17 07:08:13;;;;;;;10.00;2.40;;;;;;;-143.84;28.78;44772.97;5110925;28;21357;-73
2022/07/17 07:10:42;;;;;;;2.60;2.40;;;;;;;-143.84;28.32;44792.00;5111138;28;20431;-73
2022/07/17 07:13:09;;;;;;;3.27;2.97;;;;;;;-143.84;28.31;44772.97;5110505;28;20534;-73
2022/07/17 07:15:37;;;;;;;2.33;2.13;;;;;;;-143.84;27.99;44776.78;5110769;28;20439;-73
2022/07/17 07:18:04;;;;;;;5.53;2.10;;;;;;;-143.84;27.05;44795.81;5110715;28;20472;-73
2022/07/17 07:20:31;;;;;;;8.77;2.17;;;;;;;-143.84;27.44;44790.13;5110707;28;20431;-73
2022/07/17 07:23:00;;;;;;;5.10;2.30;;;;;;;-143.84;26.60;44795.81;5110590;28;20571;-73
2022/07/17 07:25:27;;;;;;;3.83;2.23;;;;;;;-143.84;27.26;44780.59;5124126;27;20462;-73
2022/07/17 07:27:54;;;;;;;5.47;2.20;;;;;;;-143.84;27.31;44822.47;5130787;27;21002;-73
2022/07/17 07:30:21;;;;;;;7.83;2.10;;;;;;;-143.84;26.92;44772.97;5130978;27;20450;-73
2022/07/17 07:32:48;;;;;;;2.50;2.20;;;;;;;-143.84;27.02;44769.16;5130428;27;20943;-73
2022/07/17 07:35:16;;;;;;;3.30;2.03;;;;;;;-143.84;27.08;44820.56;5130301;27;20704;-73
2022/07/17 07:37:43;;;;;;;2.53;2.33;;;;;;;-143.84;27.06;44793.91;5130584;27;20510;-74
2022/07/17 07:40:13;;;;;;;3.93;1.97;;;;;;;-143.84;27.11;44835.81;5131127;27;20445;-73
2022/07/17 07:42:41;;;;;;;3.27;2.10;;;;;;;-143.84;26.74;44833.91;5130437;27;20499;-73
2022/07/17 07:45:09;;;;;;;3.90;2.20;;;;;;;-143.84;27.07;44814.88;5130430;27;20449;-74
2022/07/17 07:47:42;;;;;;;7.37;2.00;;;;;;;-143.84;26.84;44795.81;5130627;27;20426;-73
2022/07/17 07:50:11;;;;;;;3.70;2.30;;;;;;;-143.84;27.56;44816.78;5130561;27;20457;-73
2022/07/17 07:52:38;;;;;;;5.47;2.10;;;;;;;-143.84;26.48;44784.41;5130393;27;20442;-73
2022/07/17 07:55:07;;;;;;;6.03;1.80;;;;;;;-143.84;27.31;44832.00;5130047;27;20445;-73
2022/07/17 07:57:36;;;;;;;1.90;1.80;;;;;;;-143.84;26.93;44782.50;5130368;27;20506;-74
2022/07/17 08:00:05;;;;;;;8.57;1.97;;;;;;;-143.84;26.92;44752.03;5130429;27;20499;-73
2022/07/17 08:02:32;;;;;;;3.70;2.20;;;;;;;-143.84;26.54;44792.00;5129791;27;20430;-73
2022/07/17 08:04:59;;;;;;;3.40;2.27;;;;;;;-143.84;26.92;44807.25;5129429;27;20951;-73
2022/07/17 08:07:27;;;;;;;7.83;1.93;;;;;;;-143.84;26.93;44769.16;5129738;27;20438;-73
2022/07/17 08:09:54;;;;;;;2.10;1.83;;;;;;;-143.84;26.97;44793.91;5130263;27;20434;-73
2022/07/17 08:12:22;;;;;;;3.00;1.90;;;;;;;-143.84;26.70;44786.31;5129863;27;20467;-74
2022/07/17 08:14:51;;;;;;;2.90;2.10;;;;;;;-143.84;26.93;44784.41;5130229;27;20487;-74
2022/07/17 08:17:19;;;;;;;2.10;1.90;;;;;;;-143.84;27.22;44803.44;5129932;27;21010;-73
2022/07/17 08:19:46;;;;;;;3.73;2.03;;;;;;;-143.84;26.74;44778.69;5129972;27;20442;-73
2022/07/17 08:22:14;;;;;;;2.17;2.07;;;;;;;-143.84;27.39;44816.78;5130159;27;20494;-74
2022/07/17 08:24:41;;;;;;;2.63;2.20;;;;;;;-143.84;26.86;44828.19;5130036;27;20446;-73
2022/07/17 08:27:08;;;;;;;7.93;2.10;;;;;;;-143.84;26.96;44837.72;5129627;27;20802;-74
2022/07/17 08:29:35;;;;;;;8.33;2.73;;;;;;;-143.84;27.92;44833.91;5129952;27;20478;-73
2022/07/17 08:32:04;;;;;;;3.63;1.90;;;;;;;-143.84;27.33;44797.72;5129886;27;20442;-74
2022/07/17 08:34:32;;;;;;;1.80;1.70;;;;;;;-143.84;28.05;44797.72;5129915;27;20797;-74
2022/07/17 08:36:59;;;;;;;4.37;2.27;;;;;;;-143.84;27.88;44784.41;5129939;28;20481;-74
2022/07/17 08:39:26;;;;;;;7.03;1.83;;;;;;;-143.84;27.37;44776.78;5130061;28;20442;-74
2022/07/17 08:41:53;;;;;;;2.10;1.90;;;;;;;-143.84;27.76;44805.34;5129777;28;20962;-74
2022/07/17 08:44:21;;;;;;;3.00;1.97;;;;;;;-143.84;28.05;44807.25;5129829;28;20938;-74
2022/07/17 08:46:49;;;;;;;2.07;1.97;;;;;;;-143.84;27.68;44803.44;5129770;28;20442;-74
2022/07/17 08:49:22;;;;;;;3.50;1.87;;;;;;;-143.84;27.63;44814.88;5129928;28;20442;-74
2022/07/17 08:51:50;;;;;;;3.53;2.33;;;;;;;-143.84;27.24;44809.16;5129972;28;20461;-74
2022/07/17 08:54:17;;;;;;;5.93;2.10;;;;;;;-143.84;27.88;44793.91;5129714;28;20875;-74
2022/07/17 08:56:44;;;;;;;2.53;2.33;;;;;;;-143.84;27.55;44811.06;5111158;28;20550;-73
2022/07/17 08:59:12;;;;;;;6.33;2.20;;;;;;;-143.84;26.65;44816.78;5129513;28;21180;-74
2022/07/17 09:01:39;;;;;;;7.70;2.30;;;;;;;-143.84;27.54;44797.72;5129492;28;20487;-73
2022/07/17 09:04:07;;;;;;;2.00;1.90;;;;;;;-143.84;26.81;44786.31;5129698;28;20455;-73
2022/07/17 09:06:37;;;;;;;5.50;2.40;;;;;;;-143.84;26.42;44803.44;5131673;27;20446;-73
2022/07/17 09:09:07;;;;;;;2.37;1.90;;;;;;;-143.84;26.96;44788.22;5133228;27;20491;-72
2022/07/17 09:11:45;;;;;;;5.63;1.90;;;;;;;-143.84;28.02;44835.81;5133324;27;20438;-73
2022/07/17 09:14:13;;;;;;;2.23;2.10;;;;;;;-143.84;28.25;44833.91;5133904;27;20432;-73
2022/07/17 09:16:50;;;;;;;6.87;2.37;;;;;;;-143.84;28.13;44795.81;5133447;27;20477;-73
2022/07/17 09:19:26;;;;;;;3.17;2.07;;;;;;;-143.84;27.70;44832.00;5133223;27;20452;-73
2022/07/17 09:22:05;;;;;;;6.33;2.13;;;;;;;-143.84;27.40;44797.72;5133347;27;20437;-73
2022/07/17 09:24:45;;;;;;;4.97;2.23;;;;;;;-143.84;27.31;44820.56;5133082;27;20971;-73
2022/07/17 09:27:17;;;;;;;6.13;2.13;;;;;;;-143.84;28.22;44792.00;5133159;27;20460;-73
2022/07/17 09:29:52;;;;;;;3.10;2.00;;;;;;;-143.84;27.38;44809.16;5132891;27;20497;-73
2022/07/17 09:32:19;;;;;;;4.60;1.93;;;;;;;-143.84;27.93;44792.00;5132953;27;20524;-73
2022/07/17 09:34:47;;;;;;;10.73;1.97;;;;;;;-143.84;27.57;44803.44;5133096;27;20855;-73
2022/07/17 09:37:16;;;;;;;2.47;2.27;;;;;;;-143.84;27.50;44799.63;5132973;27;20473;-73
2022/07/17 09:39:46;;;;;;;2.10;1.90;;;;;;;-143.84;27.26;44771.06;5132899;27;20434;-73
2022/07/17 09:42:23;;;;;;;4.93;2.07;;;;;;;-143.84;27.02;44761.56;5132485;27;20446;-73
2022/07/17 09:44:58;;;;;;;3.70;2.20;;;;;;;-143.84;27.37;44778.69;5132422;27;20520;-73
2022/07/17 09:47:26;;;;;;;7.90;2.03;;;;;;;-143.84;27.43;44782.50;5132561;27;20448;-73
2022/07/17 09:49:55;;;;;;;4.50;2.00;;;;;;;-143.84;27.29;44742.50;5132567;27;20847;-73
2022/07/17 09:52:25;;;;;;;2.63;2.40;;;;;;;-143.84;26.60;44761.56;5132859;27;21321;-73
2022/07/17 09:54:53;;;;;;;2.80;2.27;;;;;;;-143.84;27.79;44738.69;5132589;27;20448;-73
2022/07/17 09:57:25;;;;;;;2.83;2.13;;;;;;;-143.84;26.43;44780.59;5132447;27;20513;-73
2022/07/17 09:59:55;;;;;;;3.10;1.97;;;;;;;-143.84;26.45;44765.34;5132512;27;20454;-73
2022/07/17 10:02:24;;;;;;;4.90;2.30;;;;;;;-143.84;27.15;44746.31;5132662;27;20434;-73
2022/07/17 10:04:53;;;;;;;5.00;2.60;;;;;;;-143.84;26.30;44763.47;5132312;27;20438;-73
2022/07/17 10:07:21;;;;;;;2.23;2.00;;;;;;;-143.84;27.81;44752.03;5132181;27;20483;-73
2022/07/17 10:09:49;;;;;;;3.13;2.30;;;;;;;-143.84;26.53;44736.81;5131764;27;20825;-73
2022/07/17 10:12:17;;;;;;;2.30;2.10;;;;;;;-143.84;25.99;44744.41;5132325;27;20457;-73
2022/07/17 10:14:48;;;;;;;4.93;2.20;;;;;;;-143.84;25.79;44780.59;5132495;27;20434;-73
2022/07/17 10:17:21;;;;;;;9.53;2.30;;;;;;;-143.84;26.96;44744.41;5131603;27;20833;-73
2022/07/17 10:19:50;;;;;;;2.10;1.90;;;;;;;-143.84;25.78;44746.31;5132196;27;20442;-73
2022/07/17 10:22:18;;;;;;;3.27;2.03;;;;;;;-143.84;25.83;44748.22;5131893;27;20441;-73
2022/07/17 10:24:52;;;;;;;3.10;2.87;;;;;;;-143.84;26.99;44750.13;5131877;27;20487;-73
2022/07/17 10:27:22;;;;;;;4.90;2.50;;;;;;;-143.84;27.14;44763.47;5132209;27;20438;-73
2022/07/17 10:30:01;;;;;;;4.90;2.00;;;;;;;-143.84;27.56;44740.59;5131887;27;20466;-73
2022/07/17 10:32:28;;;;;;;2.10;2.00;;;;;;;-143.84;26.16;44729.19;5131861;27;20533;-73
2022/07/17 10:35:01;;;;;;;2.07;1.97;;;;;;;-143.84;27.48;44759.66;5131615;27;20807;-73
2022/07/17 10:37:32;;;;;;;3.30;2.30;;;;;;;-143.84;26.59;44715.84;5131064;27;20481;-73
2022/07/17 10:40:06;;;;;;;5.80;2.50;;;;;;;-143.84;26.68;44755.84;5131502;27;20483;-73
2022/07/17 10:42:59;;;;;;;2.20;2.00;;;;;;;-143.84;26.80;44761.56;5131844;27;20441;-73
2022/07/17 10:45:32;;;;;;;3.00;2.57;;;;;;;-143.84;26.68;44725.38;5112014;27;20442;-73
2022/07/17 10:48:01;;;;;;;4.03;2.30;;;;;;;-143.84;27.03;44753.94;5131521;27;20471;-73
2022/07/17 10:50:31;;;;;;;5.47;2.03;;;;;;;-143.84;26.92;44757.75;5131635;27;20474;-73
2022/07/17 10:53:04;;;;;;;2.40;2.20;;;;;;;-143.84;27.81;44771.06;5131470;27;20982;-73
2022/07/17 10:55:34;;;;;;;2.50;2.30;;;;;;;-143.84;27.00;44755.84;5131419;27;20438;-73
2022/07/17 10:58:01;;;;;;;2.40;2.20;;;;;;;-143.84;26.50;44759.66;5131126;27;20474;-73
2022/07/17 11:00:28;;;;;;;2.37;2.17;;;;;;;-143.84;27.39;44788.22;5131366;27;20446;-73
2022/07/17 11:02:56;;;;;;;5.40;2.17;;;;;;;-143.84;27.17;44744.41;5131488;27;20434;-73
2022/07/17 11:05:23;;;;;;;2.97;2.30;;;;;;;-143.84;27.41;44780.59;5130609;27;20434;-73
2022/07/17 11:08:01;;;;;;;3.27;2.27;;;;;;;-143.84;26.75;44782.50;5130531;27;20829;-73
2022/07/17 11:10:29;;;;;;;5.87;2.53;;;;;;;-143.84;27.33;44790.13;5130523;27;20848;-73
2022/07/17 11:13:10;;;;;;;2.20;2.03;;;;;;;-143.84;26.71;44793.91;5131143;27;20887;-73
2022/07/17 11:15:42;;;;;;;2.60;2.40;;;;;;;-143.84;26.54;44824.38;5131013;27;20442;-73
2022/07/17 11:18:13;;;;;;;9.80;2.97;;;;;;;-143.84;27.16;44795.81;5130885;27;21002;-73
2022/07/17 11:20:51;;;;;;;3.83;2.20;;;;;;;-143.84;27.29;44824.38;5130784;27;20426;-73
2022/07/17 11:23:19;;;;;;;4.60;3.03;;;;;;;-143.84;31.26;44818.66;5130591;27;20797;-73